Time;durP1;ratioP1;P1;durP2;ratioP2;P2;SDS_P1;SDS_P2;PMS_P1;PMS_P2;Temp;Humidity;BMP_temperature;BMP_pressure;BME280_temperature;BME280_humidity;BME280_pressure;Samples;Min_cycle;Max_cycle;Signal;HPM_P1;HPM_P2
2023/03/27 00:00:49;;;;;;;8.85;4.75;;;;;;;;;;5042163;28;20040;-89
2023/03/27 00:03:16;;;;;;;9.13;5.00;;;;;;;;;;5059963;28;20040;-89
2023/03/27 00:05:44;;;;;;;11.05;5.78;;;;;;;;;;5059513;28;20347;-89
2023/03/27 00:08:11;;;;;;;10.50;5.72;;;;;;;;;;5042271;28;20039;-88
2023/03/27 00:10:37;;;;;;;10.25;5.88;;;;;;;;;;5059807;28;20024;-89
2023/03/27 00:13:04;;;;;;;9.63;6.20;;;;;;;;;;5041757;28;20021;-89
2023/03/27 00:15:31;;;;;;;7.70;5.00;;;;;;;;;;5059707;28;20035;-88
2023/03/27 00:21:01;;;;;;;9.98;5.03;;;;;;;;;;5059242;28;20095;-89
2023/03/27 00:23:28;;;;;;;8.68;5.22;;;;;;;;;;5059470;28;20024;-88
2023/03/27 00:25:58;;;;;;;12.75;5.60;;;;;;;;;;5058076;28;20052;-88
2023/03/27 00:28:29;;;;;;;9.82;4.68;;;;;;;;;;5059104;28;20029;-89
2023/03/27 00:30:55;;;;;;;9.95;5.15;;;;;;;;;;5059087;28;20108;-89
2023/03/27 00:36:26;;;;;;;12.20;5.85;;;;;;;;;;5058697;28;20056;-88
2023/03/27 00:38:53;;;;;;;10.45;5.97;;;;;;;;;;5039230;28;20034;-89
2023/03/27 00:41:19;;;;;;;13.23;6.38;;;;;;;;;;5039101;28;20106;-87
2023/03/27 00:43:48;;;;;;;13.60;6.75;;;;;;;;;;5021560;28;20110;-88
2023/03/27 00:46:40;;;;;;;13.93;6.40;;;;;;;;;;5021383;28;20371;-88
2023/03/27 00:52:12;;;;;;;9.77;5.30;;;;;;;;;;5038901;28;20112;-88
2023/03/27 00:54:38;;;;;;;9.00;5.38;;;;;;;;;;5038483;28;20318;-88
2023/03/27 00:57:07;;;;;;;9.50;5.82;;;;;;;;;;5038565;28;20021;-88
2023/03/27 00:59:35;;;;;;;8.30;4.40;;;;;;;;;;5038795;28;20029;-88
2023/03/27 01:02:02;;;;;;;12.65;5.30;;;;;;;;;;5038334;28;20029;-88
2023/03/27 01:04:30;;;;;;;11.68;6.45;;;;;;;;;;5038537;28;20038;-88
2023/03/27 01:06:57;;;;;;;11.07;5.32;;;;;;;;;;5038357;28;20112;-88
2023/03/27 01:09:25;;;;;;;9.73;4.85;;;;;;;;;;5038551;28;20033;-88
2023/03/27 01:11:51;;;;;;;8.48;3.85;;;;;;;;;;5038317;28;20026;-88
2023/03/27 01:14:50;;;;;;;15.82;5.50;;;;;;;;;;5038141;28;20105;-88
2023/03/27 01:20:26;;;;;;;27.98;9.65;;;;;;;;;;4977917;28;20029;-88
2023/03/27 01:23:11;;;;;;;13.70;6.25;;;;;;;;;;4977582;28;20387;-88
2023/03/27 01:25:55;;;;;;;26.58;7.97;;;;;;;;;;4977624;28;20163;-89
2023/03/27 01:28:31;;;;;;;57.78;14.90;;;;;;;;;;4977602;28;20031;-90
2023/03/27 01:31:00;;;;;;;64.13;16.27;;;;;;;;;;4977489;28;20035;-90
2023/03/27 01:33:44;;;;;;;42.33;11.13;;;;;;;;;;4977397;28;20027;-89
2023/03/27 01:36:13;;;;;;;17.38;5.80;;;;;;;;;;4977400;28;20039;-89
2023/03/27 01:38:58;;;;;;;11.13;5.60;;;;;;;;;;4977058;28;20330;-89
2023/03/27 01:41:29;;;;;;;12.27;5.00;;;;;;;;;;4977228;28;20038;-89
2023/03/27 01:44:13;;;;;;;9.48;5.68;;;;;;;;;;4977541;28;20570;-88
2023/03/27 01:46:43;;;;;;;8.90;4.88;;;;;;;;;;4977386;28;20074;-88
2023/03/27 01:49:13;;;;;;;8.23;4.40;;;;;;;;;;4977301;28;20041;-89
2023/03/27 01:51:41;;;;;;;9.05;4.28;;;;;;;;;;4977518;28;20022;-88
2023/03/27 01:54:20;;;;;;;10.75;5.65;;;;;;;;;;5040014;28;20021;-89
2023/03/27 01:56:50;;;;;;;10.35;5.18;;;;;;;;;;5057826;28;20308;-89
2023/03/27 01:59:17;;;;;;;8.57;4.75;;;;;;;;;;5057482;28;20025;-88
2023/03/27 02:01:56;;;;;;;10.70;5.80;;;;;;;;;;5039765;28;20426;-88
2023/03/27 02:10:57;;;;;;;11.40;6.22;;;;;;;;;;5057477;28;20039;-89
2023/03/27 02:13:28;;;;;;;10.02;5.18;;;;;;;;;;5057211;28;20112;-88
2023/03/27 02:15:57;;;;;;;14.00;6.88;;;;;;;;;;5057672;28;20032;-88
2023/03/27 02:18:28;;;;;;;18.92;7.82;;;;;;;;;;5057492;28;20368;-89
2023/03/27 02:20:54;;;;;;;16.17;7.75;;;;;;;;;;5057551;28;20021;-89
2023/03/27 02:23:21;;;;;;;18.73;9.02;;;;;;;;;;5057233;28;20033;-89
2023/03/27 02:25:48;;;;;;;18.08;8.90;;;;;;;;;;5057167;28;20067;-89
2023/03/27 02:28:33;;;;;;;17.00;8.35;;;;;;;;;;5039817;28;20032;-89
2023/03/27 02:31:25;;;;;;;13.25;6.00;;;;;;;;;;5057499;28;20070;-89
2023/03/27 02:33:51;;;;;;;9.75;5.45;;;;;;;;;;5057357;28;20315;-88
2023/03/27 02:36:29;;;;;;;7.75;4.72;;;;;;;;;;5057111;28;20032;-88
2023/03/27 02:39:00;;;;;;;8.20;4.88;;;;;;;;;;5039603;28;20041;-89
2023/03/27 02:41:26;;;;;;;10.20;4.60;;;;;;;;;;5057462;28;20319;-88
2023/03/27 02:44:11;;;;;;;10.88;4.70;;;;;;;;;;5039517;28;20339;-88
2023/03/27 02:46:42;;;;;;;12.30;5.18;;;;;;;;;;5039513;28;20025;-88
2023/03/27 02:49:12;;;;;;;8.20;4.70;;;;;;;;;;5057820;28;20033;-88
2023/03/27 02:51:44;;;;;;;11.30;5.03;;;;;;;;;;5061238;28;20403;-87
2023/03/27 02:54:31;;;;;;;9.82;4.47;;;;;;;;;;5061062;28;20036;-87
2023/03/27 02:57:02;;;;;;;10.27;4.57;;;;;;;;;;5061090;28;20335;-88
2023/03/27 02:59:34;;;;;;;9.50;5.18;;;;;;;;;;5061133;28;20029;-89
2023/03/27 03:02:01;;;;;;;10.25;5.50;;;;;;;;;;5026895;28;20061;-89
2023/03/27 03:04:29;;;;;;;8.43;5.18;;;;;;;;;;5041103;28;20037;-88
2023/03/27 03:06:56;;;;;;;11.73;5.35;;;;;;;;;;5040789;28;20029;-88
2023/03/27 03:09:22;;;;;;;9.85;4.88;;;;;;;;;;5040907;28;20025;-88
2023/03/27 03:11:50;;;;;;;10.45;4.20;;;;;;;;;;5040918;28;20108;-87
2023/03/27 03:14:21;;;;;;;8.60;5.07;;;;;;;;;;5040393;28;20060;-88
2023/03/27 03:16:47;;;;;;;7.25;4.45;;;;;;;;;;5023155;28;20037;-88
2023/03/27 03:19:13;;;;;;;6.65;4.50;;;;;;;;;;5023098;28;20035;-88
2023/03/27 03:21:39;;;;;;;9.10;4.35;;;;;;;;;;5040671;28;20293;-89
2023/03/27 03:24:06;;;;;;;11.35;5.05;;;;;;;;;;5040484;28;20420;-89
2023/03/27 03:26:32;;;;;;;10.25;4.53;;;;;;;;;;5040631;28;20026;-88
2023/03/27 03:28:59;;;;;;;10.55;4.85;;;;;;;;;;5040444;28;20057;-89
2023/03/27 03:31:26;;;;;;;11.00;4.72;;;;;;;;;;5039841;28;20414;-89
2023/03/27 03:40:12;;;;;;;10.18;5.32;;;;;;;;;;5040300;28;20112;-90
2023/03/27 03:42:45;;;;;;;11.20;6.13;;;;;;;;;;5040084;28;20064;-89
2023/03/27 03:45:11;;;;;;;11.18;5.45;;;;;;;;;;5039279;28;20040;-78
2023/03/27 03:47:37;;;;;;;14.45;6.80;;;;;;;;;;5039061;28;20030;-78
2023/03/27 03:50:04;;;;;;;11.55;5.97;;;;;;;;;;5039058;28;20036;-78
2023/03/27 03:52:30;;;;;;;9.55;5.80;;;;;;;;;;5039644;28;20108;-78
2023/03/27 03:54:56;;;;;;;12.50;6.68;;;;;;;;;;5039540;28;20021;-78
2023/03/27 03:57:22;;;;;;;11.88;6.97;;;;;;;;;;5039128;28;20026;-78
2023/03/27 03:59:48;;;;;;;11.50;6.55;;;;;;;;;;5021410;28;20040;-79
2023/03/27 04:02:27;;;;;;;13.45;6.50;;;;;;;;;;5021554;28;20061;-79
2023/03/27 04:04:56;;;;;;;16.83;8.20;;;;;;;;;;5038899;28;20029;-79
2023/03/27 04:07:23;;;;;;;17.95;8.57;;;;;;;;;;5038978;28;20470;-79
2023/03/27 04:09:49;;;;;;;14.25;7.93;;;;;;;;;;5038936;28;20032;-78
2023/03/27 04:12:16;;;;;;;11.65;6.07;;;;;;;;;;5021498;28;20428;-78
2023/03/27 04:14:42;;;;;;;12.52;5.88;;;;;;;;;;5038465;28;20025;-79
2023/03/27 04:17:08;;;;;;;7.35;5.13;;;;;;;;;;5039023;28;20049;-78
2023/03/27 04:19:34;;;;;;;9.88;4.60;;;;;;;;;;5021127;28;20062;-79
2023/03/27 04:22:01;;;;;;;8.00;5.43;;;;;;;;;;5021209;28;20029;-78
2023/03/27 04:24:29;;;;;;;10.43;6.18;;;;;;;;;;5038541;28;20109;-78
2023/03/27 04:26:57;;;;;;;7.85;5.38;;;;;;;;;;5021023;28;20033;-79
2023/03/27 04:29:23;;;;;;;10.75;6.80;;;;;;;;;;5038788;28;20041;-78
2023/03/27 04:31:50;;;;;;;9.75;5.70;;;;;;;;;;5021099;28;20408;-78
2023/03/27 04:34:19;;;;;;;12.90;6.65;;;;;;;;;;5038282;28;20422;-78
2023/03/27 04:36:46;;;;;;;15.52;10.43;;;;;;;;;;5038660;28;20312;-78
2023/03/27 04:39:15;;;;;;;20.30;13.95;;;;;;;;;;5051732;28;20045;-78
2023/03/27 04:41:44;;;;;;;31.05;23.23;;;;;;;;;;5058537;28;20029;-78
2023/03/27 04:44:10;;;;;;;26.08;22.38;;;;;;;;;;5040592;28;20021;-79
2023/03/27 04:46:37;;;;;;;20.77;14.25;;;;;;;;;;5040442;28;20043;-78
2023/03/27 04:49:03;;;;;;;8.88;5.80;;;;;;;;;;5058333;28;20065;-78
2023/03/27 04:51:31;;;;;;;10.90;6.05;;;;;;;;;;5040450;28;20044;-79
2023/03/27 04:53:57;;;;;;;17.48;8.77;;;;;;;;;;5039990;28;20040;-79
2023/03/27 04:56:23;;;;;;;19.73;9.85;;;;;;;;;;5058087;28;20021;-79
2023/03/27 04:58:49;;;;;;;17.23;7.90;;;;;;;;;;5057988;28;20017;-79
2023/03/27 05:01:16;;;;;;;14.55;7.40;;;;;;;;;;5058083;28;20033;-78
2023/03/27 05:03:42;;;;;;;9.82;6.40;;;;;;;;;;5057782;28;20415;-78
2023/03/27 05:06:08;;;;;;;13.45;7.13;;;;;;;;;;5058060;28;20335;-78
2023/03/27 05:08:35;;;;;;;12.88;7.15;;;;;;;;;;5057890;28;20021;-78
2023/03/27 05:11:01;;;;;;;13.57;6.78;;;;;;;;;;5057686;28;20029;-78
2023/03/27 05:13:27;;;;;;;12.90;6.55;;;;;;;;;;5057040;28;20024;-79
2023/03/27 05:15:54;;;;;;;18.13;7.70;;;;;;;;;;5057641;28;20067;-79
2023/03/27 05:18:20;;;;;;;16.40;8.35;;;;;;;;;;5039739;28;20419;-79
2023/03/27 05:20:48;;;;;;;11.25;7.00;;;;;;;;;;5039255;28;20037;-79
2023/03/27 05:23:15;;;;;;;12.90;7.18;;;;;;;;;;5057758;28;20381;-78
2023/03/27 05:25:44;;;;;;;16.55;8.30;;;;;;;;;;5057691;28;20346;-78
2023/03/27 05:28:10;;;;;;;18.17;8.95;;;;;;;;;;5057244;28;20457;-78
2023/03/27 05:30:36;;;;;;;23.75;11.93;;;;;;;;;;5057375;28;20413;-78
2023/03/27 05:33:02;;;;;;;27.15;15.23;;;;;;;;;;5057411;28;20013;-78
2023/03/27 05:35:28;;;;;;;30.10;15.02;;;;;;;;;;5057283;28;20018;-78
2023/03/27 05:37:56;;;;;;;18.55;10.43;;;;;;;;;;5039509;28;20051;-78
2023/03/27 05:40:26;;;;;;;14.93;7.22;;;;;;;;;;5057362;28;20070;-79
2023/03/27 05:42:53;;;;;;;15.40;6.78;;;;;;;;;;5057027;28;20025;-78
2023/03/27 05:45:19;;;;;;;14.05;7.57;;;;;;;;;;5039148;28;20060;-79
2023/03/27 05:47:50;;;;;;;22.05;9.13;;;;;;;;;;5057202;28;20016;-80
2023/03/27 05:50:18;;;;;;;26.52;10.32;;;;;;;;;;5056568;28;20383;-78
2023/03/27 05:52:44;;;;;;;20.08;8.45;;;;;;;;;;5056910;28;20024;-78
2023/03/27 05:55:10;;;;;;;28.30;12.82;;;;;;;;;;5057079;28;20021;-78
2023/03/27 05:57:40;;;;;;;26.23;11.70;;;;;;;;;;5057050;28;20017;-78
2023/03/27 06:00:12;;;;;;;19.90;9.23;;;;;;;;;;5056904;28;20032;-78
2023/03/27 06:02:38;;;;;;;16.58;6.40;;;;;;;;;;5057089;28;20021;-78
2023/03/27 06:05:06;;;;;;;13.55;5.65;;;;;;;;;;5057241;28;20096;-78
2023/03/27 06:07:32;;;;;;;12.73;5.95;;;;;;;;;;5056838;28;20028;-79
2023/03/27 06:09:59;;;;;;;9.45;4.40;;;;;;;;;;5056817;28;20037;-78
2023/03/27 06:12:25;;;;;;;10.40;4.88;;;;;;;;;;5056885;28;20108;-78
2023/03/27 06:14:51;;;;;;;10.32;5.53;;;;;;;;;;5056624;28;20017;-78
2023/03/27 06:17:17;;;;;;;9.70;5.28;;;;;;;;;;5039091;28;20040;-78
2023/03/27 06:19:43;;;;;;;16.55;9.00;;;;;;;;;;5057006;28;20029;-78
2023/03/27 06:22:10;;;;;;;12.88;5.63;;;;;;;;;;5056595;28;20032;-78
2023/03/27 06:24:36;;;;;;;7.40;4.55;;;;;;;;;;5058146;28;20106;-78
2023/03/27 06:27:02;;;;;;;13.77;7.40;;;;;;;;;;5060741;28;20032;-78
2023/03/27 06:29:28;;;;;;;12.10;6.43;;;;;;;;;;5060458;28;20052;-78
2023/03/27 06:32:00;;;;;;;7.38;4.82;;;;;;;;;;5060849;28;20485;-78
2023/03/27 06:34:26;;;;;;;9.98;4.50;;;;;;;;;;5042832;28;20037;-78
2023/03/27 06:36:52;;;;;;;9.63;5.32;;;;;;;;;;5042986;28;20032;-78
2023/03/27 06:39:18;;;;;;;8.15;4.18;;;;;;;;;;5060400;28;20377;-78
2023/03/27 06:41:44;;;;;;;7.90;4.00;;;;;;;;;;5060562;28;20457;-79
2023/03/27 06:44:10;;;;;;;12.77;6.38;;;;;;;;;;5042845;28;20033;-78
2023/03/27 06:46:37;;;;;;;10.23;5.07;;;;;;;;;;5060532;28;20033;-78
2023/03/27 06:49:03;;;;;;;12.35;5.90;;;;;;;;;;5060472;28;20033;-79
2023/03/27 06:51:29;;;;;;;15.43;6.38;;;;;;;;;;5060502;28;20032;-78
2023/03/27 06:53:55;;;;;;;10.32;6.18;;;;;;;;;;5060481;28;20067;-78
2023/03/27 06:56:21;;;;;;;10.68;5.07;;;;;;;;;;5060385;28;20400;-79
2023/03/27 06:58:47;;;;;;;10.90;5.00;;;;;;;;;;5059918;28;20435;-78
2023/03/27 07:01:13;;;;;;;9.70;4.70;;;;;;;;;;5060208;28;20384;-79
2023/03/27 07:03:39;;;;;;;8.52;4.53;;;;;;;;;;5060252;28;20021;-78
2023/03/27 07:06:06;;;;;;;9.40;4.13;;;;;;;;;;5060298;28;20122;-78
2023/03/27 07:08:32;;;;;;;7.40;3.50;;;;;;;;;;5042295;28;20319;-79
2023/03/27 07:10:59;;;;;;;3.53;2.72;;;;;;;;;;5059963;28;20021;-78
2023/03/27 07:13:26;;;;;;;6.97;3.53;;;;;;;;;;5060077;28;20032;-78
2023/03/27 07:15:52;;;;;;;4.55;2.63;;;;;;;;;;5059696;28;20025;-78
2023/03/27 07:18:20;;;;;;;8.05;4.22;;;;;;;;;;5059510;28;20021;-78
2023/03/27 07:20:47;;;;;;;6.20;3.70;;;;;;;;;;5041974;28;20029;-79
2023/03/27 07:23:13;;;;;;;6.97;4.25;;;;;;;;;;5059709;28;20029;-78
2023/03/27 07:25:39;;;;;;;5.53;4.20;;;;;;;;;;5059874;28;20032;-78
2023/03/27 07:28:08;;;;;;;6.07;3.80;;;;;;;;;;5042021;28;20087;-78
2023/03/27 07:30:35;;;;;;;8.50;4.70;;;;;;;;;;5041944;28;20039;-78
2023/03/27 07:33:01;;;;;;;8.18;4.43;;;;;;;;;;5041963;28;20078;-78
2023/03/27 07:35:27;;;;;;;11.05;5.22;;;;;;;;;;5059261;28;20044;-78
2023/03/27 07:37:54;;;;;;;12.60;7.65;;;;;;;;;;5059411;28;20044;-79
2023/03/27 07:40:25;;;;;;;10.27;5.47;;;;;;;;;;5059231;28;20143;-78
2023/03/27 07:42:52;;;;;;;8.70;5.68;;;;;;;;;;5041808;28;20018;-78
2023/03/27 07:45:19;;;;;;;10.77;5.38;;;;;;;;;;5059360;28;20040;-79
2023/03/27 07:47:45;;;;;;;8.88;5.85;;;;;;;;;;5041677;28;20024;-79
2023/03/27 07:50:13;;;;;;;13.07;5.95;;;;;;;;;;5059328;28;20025;-78
2023/03/27 07:52:39;;;;;;;9.15;6.15;;;;;;;;;;5059141;28;20031;-79
2023/03/27 07:55:06;;;;;;;8.13;6.07;;;;;;;;;;5059148;28;20017;-78
2023/03/27 07:57:32;;;;;;;10.68;6.20;;;;;;;;;;5059037;28;20025;-78
2023/03/27 07:59:58;;;;;;;8.38;6.03;;;;;;;;;;5058978;28;20355;-78
2023/03/27 08:02:24;;;;;;;11.13;6.60;;;;;;;;;;5058992;28;20032;-78
2023/03/27 08:04:51;;;;;;;9.45;6.28;;;;;;;;;;5059087;28;20032;-78
2023/03/27 08:07:21;;;;;;;9.80;7.18;;;;;;;;;;5059167;28;20032;-78
2023/03/27 08:09:47;;;;;;;9.85;7.40;;;;;;;;;;5058889;28;20438;-78
2023/03/27 08:12:14;;;;;;;13.20;8.27;;;;;;;;;;5058925;28;20021;-78
2023/03/27 08:14:40;;;;;;;11.82;8.55;;;;;;;;;;5058547;28;20087;-78
2023/03/27 08:17:06;;;;;;;12.93;8.93;;;;;;;;;;5058715;28;20315;-78
2023/03/27 08:19:32;;;;;;;12.55;8.63;;;;;;;;;;5058526;28;20029;-78
2023/03/27 08:21:59;;;;;;;29.70;12.82;;;;;;;;;;5058390;28;20056;-79
2023/03/27 08:24:25;;;;;;;22.85;11.18;;;;;;;;;;5058660;28;20040;-78
2023/03/27 08:26:51;;;;;;;14.52;10.18;;;;;;;;;;5058893;28;20049;-78
2023/03/27 08:29:17;;;;;;;25.13;15.05;;;;;;;;;;5040779;28;20025;-78
2023/03/27 08:31:43;;;;;;;13.05;10.90;;;;;;;;;;5040855;28;20037;-79
2023/03/27 08:34:10;;;;;;;10.38;8.90;;;;;;;;;;5058434;28;20021;-79
2023/03/27 08:36:37;;;;;;;18.38;14.68;;;;;;;;;;5058643;28;20025;-78
2023/03/27 08:39:05;;;;;;;46.78;22.70;;;;;;;;;;5058418;28;20431;-79
2023/03/27 08:41:37;;;;;;;34.65;17.50;;;;;;;;;;5058180;28;20028;-78
2023/03/27 08:44:05;;;;;;;12.75;9.82;;;;;;;;;;5058470;28;20336;-78
2023/03/27 08:46:37;;;;;;;15.52;13.90;;;;;;;;;;5057333;28;20033;-78
2023/03/27 08:49:11;;;;;;;12.70;11.35;;;;;;;;;;5058133;28;20033;-79
2023/03/27 08:51:52;;;;;;;12.00;7.80;;;;;;;;;;5040459;28;20033;-79
2023/03/27 08:54:22;;;;;;;17.88;9.90;;;;;;;;;;5058324;28;20075;-80
2023/03/27 08:56:48;;;;;;;17.40;9.52;;;;;;;;;;5058157;28;20087;-79
2023/03/27 08:59:16;;;;;;;15.88;9.02;;;;;;;;;;5058225;28;20031;-78
2023/03/27 09:01:50;;;;;;;9.65;7.75;;;;;;;;;;5057589;28;20025;-78
2023/03/27 09:04:35;;;;;;;20.25;13.48;;;;;;;;;;5057993;28;20040;-79
2023/03/27 09:07:11;;;;;;;25.15;14.52;;;;;;;;;;5040109;28;20029;-79
2023/03/27 09:09:52;;;;;;;10.73;6.82;;;;;;;;;;5058205;28;20036;-78
2023/03/27 09:12:21;;;;;;;11.53;7.03;;;;;;;;;;5057731;28;20029;-78
2023/03/27 09:15:00;;;;;;;26.52;12.15;;;;;;;;;;5040009;28;20625;-78
2023/03/27 09:17:30;;;;;;;8.35;6.43;;;;;;;;;;5039827;28;20036;-79
2023/03/27 09:19:59;;;;;;;5.88;4.57;;;;;;;;;;5057557;28;20029;-79
2023/03/27 09:22:30;;;;;;;4.20;3.60;;;;;;;;;;5057833;28;20028;-79
2023/03/27 09:25:01;;;;;;;4.50;3.60;;;;;;;;;;5057514;28;20487;-78
2023/03/27 09:27:31;;;;;;;4.78;3.10;;;;;;;;;;5037564;28;20124;-79
2023/03/27 09:30:07;;;;;;;5.13;3.75;;;;;;;;;;5020040;28;20021;-79
2023/03/27 09:32:33;;;;;;;3.65;3.33;;;;;;;;;;5019927;28;20029;-79
2023/03/27 09:34:59;;;;;;;7.45;3.75;;;;;;;;;;5019547;28;20129;-78
2023/03/27 09:37:26;;;;;;;72.97;28.17;;;;;;;;;;5037376;28;20017;-79
2023/03/27 09:39:53;;;;;;;11.82;7.80;;;;;;;;;;5019006;28;20167;-78
2023/03/27 09:42:25;;;;;;;8.30;5.43;;;;;;;;;;5037344;28;20112;-78
2023/03/27 09:44:55;;;;;;;9.90;6.45;;;;;;;;;;5037066;28;20333;-78
2023/03/27 09:47:26;;;;;;;43.53;23.92;;;;;;;;;;5037395;28;20030;-79
2023/03/27 09:49:55;;;;;;;13.88;10.02;;;;;;;;;;5036993;28;20435;-78
2023/03/27 09:52:40;;;;;;;22.40;13.35;;;;;;;;;;5037319;28;20053;-79
2023/03/27 09:55:22;;;;;;;24.48;14.25;;;;;;;;;;5037173;28;20427;-78
2023/03/27 09:57:48;;;;;;;9.73;6.97;;;;;;;;;;5019335;28;20040;-78
2023/03/27 10:00:26;;;;;;;20.55;11.63;;;;;;;;;;5037285;28;20025;-79
2023/03/27 10:03:00;;;;;;;10.73;6.82;;;;;;;;;;5019262;28;20091;-78
2023/03/27 10:05:26;;;;;;;40.20;18.48;;;;;;;;;;5036933;28;20408;-81
2023/03/27 10:07:52;;;;;;;57.08;20.75;;;;;;;;;;5036867;28;20049;-81
2023/03/27 10:10:19;;;;;;;9.57;5.18;;;;;;;;;;5019029;28;20033;-84
2023/03/27 10:12:56;;;;;;;8.48;3.97;;;;;;;;;;5036841;28;20029;-79
2023/03/27 10:15:26;;;;;;;8.77;4.82;;;;;;;;;;5036904;28;20067;-79
2023/03/27 10:17:52;;;;;;;9.00;5.85;;;;;;;;;;5019227;28;20416;-79
2023/03/27 10:20:19;;;;;;;9.77;5.65;;;;;;;;;;5019232;28;20427;-80
2023/03/27 10:22:53;;;;;;;14.23;7.10;;;;;;;;;;5036515;28;20025;-79
2023/03/27 10:25:21;;;;;;;8.70;4.40;;;;;;;;;;5037061;28;20415;-79
2023/03/27 10:27:47;;;;;;;10.10;6.07;;;;;;;;;;5036911;28;20033;-79
2023/03/27 10:30:26;;;;;;;4.57;3.08;;;;;;;;;;5036544;28;20028;-79
2023/03/27 10:32:52;;;;;;;9.77;4.57;;;;;;;;;;5019299;28;20108;-79
2023/03/27 10:35:51;;;;;;;5.72;2.95;;;;;;;;;;5036634;28;20400;-80
2023/03/27 10:38:18;;;;;;;10.20;5.32;;;;;;;;;;4940486;29;20179;-79
2023/03/27 10:40:47;;;;;;;6.68;3.70;;;;;;;;;;4956837;29;20042;-79
2023/03/27 10:43:17;;;;;;;4.18;2.78;;;;;;;;;;4956817;29;20031;-79
2023/03/27 10:45:46;;;;;;;6.13;3.88;;;;;;;;;;4956543;28;20424;-79
2023/03/27 10:48:16;;;;;;;5.57;3.83;;;;;;;;;;4956449;29;20168;-79
2023/03/27 10:50:46;;;;;;;3.72;2.42;;;;;;;;;;4956394;29;20462;-78
2023/03/27 10:53:16;;;;;;;5.43;3.90;;;;;;;;;;4956847;28;20027;-79
2023/03/27 10:55:47;;;;;;;6.50;3.25;;;;;;;;;;4956658;29;20023;-79
2023/03/27 10:58:32;;;;;;;8.15;3.97;;;;;;;;;;4956813;29;20422;-79
2023/03/27 11:01:05;;;;;;;8.98;5.03;;;;;;;;;;4956828;28;20432;-79
2023/03/27 11:03:43;;;;;;;4.15;3.00;;;;;;;;;;4956458;29;20026;-79
2023/03/27 11:06:14;;;;;;;5.20;3.42;;;;;;;;;;4940662;29;20039;-79
2023/03/27 11:08:46;;;;;;;6.78;3.50;;;;;;;;;;4956437;28;20035;-79
2023/03/27 11:11:15;;;;;;;4.43;2.70;;;;;;;;;;4959046;28;20023;-79
2023/03/27 11:13:43;;;;;;;5.72;4.05;;;;;;;;;;4962356;28;20038;-78
2023/03/27 11:16:25;;;;;;;7.00;3.72;;;;;;;;;;5020161;28;20033;-79
2023/03/27 11:19:21;;;;;;;4.43;3.22;;;;;;;;;;5020086;28;20072;-79
2023/03/27 11:21:53;;;;;;;4.78;2.90;;;;;;;;;;4924566;29;20040;-79
2023/03/27 11:24:40;;;;;;;4.53;2.45;;;;;;;;;;4940753;29;20083;-79
2023/03/27 11:27:26;;;;;;;8.02;2.67;;;;;;;;;;4940644;29;20338;-78
2023/03/27 11:30:09;;;;;;;4.22;2.50;;;;;;;;;;4940573;29;20027;-78
2023/03/27 11:32:42;;;;;;;5.13;2.40;;;;;;;;;;4940642;29;20147;-78
2023/03/27 11:35:12;;;;;;;5.97;3.58;;;;;;;;;;4940340;29;20031;-78
2023/03/27 11:37:51;;;;;;;5.30;3.50;;;;;;;;;;4941524;29;20311;-79
2023/03/27 11:40:19;;;;;;;8.95;4.95;;;;;;;;;;4959595;28;20178;-79
2023/03/27 11:42:46;;;;;;;10.90;5.25;;;;;;;;;;4943343;29;20118;-79
2023/03/27 11:45:17;;;;;;;8.13;5.03;;;;;;;;;;4943510;29;20505;-79
2023/03/27 11:47:43;;;;;;;8.88;5.03;;;;;;;;;;4943557;29;20027;-78
2023/03/27 11:50:24;;;;;;;17.20;7.45;;;;;;;;;;4943205;29;20422;-79
2023/03/27 11:53:10;;;;;;;10.67;6.57;;;;;;;;;;4959433;28;20062;-79
2023/03/27 11:55:36;;;;;;;28.98;11.32;;;;;;;;;;4943356;29;20778;-79
2023/03/27 11:58:14;;;;;;;51.38;18.77;;;;;;;;;;4977678;28;20174;-79
2023/03/27 12:00:48;;;;;;;71.00;21.75;;;;;;;;;;5001906;28;20053;-79
2023/03/27 12:03:27;;;;;;;48.88;17.75;;;;;;;;;;5019433;28;20427;-78
2023/03/27 12:06:04;;;;;;;28.65;11.20;;;;;;;;;;5019298;28;20026;-79
2023/03/27 12:08:33;;;;;;;16.65;7.57;;;;;;;;;;5019391;28;20035;-79
2023/03/27 12:11:02;;;;;;;9.50;5.80;;;;;;;;;;5019284;28;20034;-79
2023/03/27 12:13:48;;;;;;;12.38;6.10;;;;;;;;;;5019244;28;20030;-79
2023/03/27 12:16:17;;;;;;;8.38;4.45;;;;;;;;;;5019020;28;20451;-79
2023/03/27 12:19:06;;;;;;;7.40;4.20;;;;;;;;;;5018745;28;20487;-79
2023/03/27 12:21:36;;;;;;;5.15;3.30;;;;;;;;;;4961861;28;20352;-79
2023/03/27 12:24:26;;;;;;;3.67;2.97;;;;;;;;;;4961911;28;20035;-79
2023/03/27 12:27:13;;;;;;;5.85;3.40;;;;;;;;;;4977914;28;20050;-79
2023/03/27 12:29:42;;;;;;;6.53;3.95;;;;;;;;;;4977876;28;20078;-79
2023/03/27 12:32:26;;;;;;;12.07;4.47;;;;;;;;;;4977713;28;20369;-79
2023/03/27 12:35:02;;;;;;;8.45;4.07;;;;;;;;;;4961621;28;20023;-78
2023/03/27 12:37:54;;;;;;;8.57;4.35;;;;;;;;;;4977772;28;20421;-78
2023/03/27 12:40:26;;;;;;;8.60;4.45;;;;;;;;;;4993871;28;20042;-79
2023/03/27 12:42:53;;;;;;;9.73;4.07;;;;;;;;;;4996661;28;20035;-78
2023/03/27 12:45:23;;;;;;;7.18;3.40;;;;;;;;;;5014955;28;20404;-79
2023/03/27 12:48:05;;;;;;;8.32;5.57;;;;;;;;;;5000382;28;20082;-79
2023/03/27 12:50:40;;;;;;;10.27;6.90;;;;;;;;;;4999857;28;20497;-79
2023/03/27 12:53:07;;;;;;;7.15;4.07;;;;;;;;;;5016803;28;20034;-80
2023/03/27 12:55:36;;;;;;;6.68;2.88;;;;;;;;;;5016375;28;20105;-79
2023/03/27 12:58:04;;;;;;;5.18;4.10;;;;;;;;;;5023068;28;20099;-80
2023/03/27 13:00:31;;;;;;;6.70;4.22;;;;;;;;;;5045017;28;20426;-79
2023/03/27 13:03:10;;;;;;;6.63;3.28;;;;;;;;;;5040289;28;20132;-80
2023/03/27 13:05:51;;;;;;;6.75;3.65;;;;;;;;;;5039904;28;20032;-80
2023/03/27 13:08:20;;;;;;;5.93;3.08;;;;;;;;;;5039994;28;20036;-80
2023/03/27 13:10:46;;;;;;;4.50;3.40;;;;;;;;;;5040274;28;20116;-79
2023/03/27 13:13:31;;;;;;;5.43;2.97;;;;;;;;;;5039745;28;20075;-79
2023/03/27 13:16:16;;;;;;;4.40;2.90;;;;;;;;;;5057711;28;20071;-79
2023/03/27 13:18:42;;;;;;;4.93;3.05;;;;;;;;;;5057304;28;20450;-79
2023/03/27 13:21:22;;;;;;;4.53;3.10;;;;;;;;;;5039891;28;20037;-79
2023/03/27 13:23:55;;;;;;;5.45;3.60;;;;;;;;;;5039636;28;20064;-84
2023/03/27 13:26:24;;;;;;;8.52;4.10;;;;;;;;;;5057693;28;20311;-85
2023/03/27 13:40:43;;;;;;;9.35;5.90;;;;;;;;;;5136055;27;20356;-85
2023/03/27 13:43:12;;;;;;;9.85;5.47;;;;;;;;;;5116763;28;20035;-85
2023/03/27 13:48:42;;;;;;;12.13;6.28;;;;;;;;;;5135872;28;20161;-85
2023/03/27 13:51:08;;;;;;;10.07;6.32;;;;;;;;;;5135902;28;20052;-84
2023/03/27 13:53:49;;;;;;;13.15;7.97;;;;;;;;;;5116775;28;20022;-85
2023/03/27 13:56:34;;;;;;;16.83;9.52;;;;;;;;;;5125855;28;20120;-86
2023/03/27 13:59:19;;;;;;;14.45;8.35;;;;;;;;;;5135473;28;20106;-86
2023/03/27 14:01:46;;;;;;;11.68;6.97;;;;;;;;;;5135917;28;20024;-86
2023/03/27 14:04:14;;;;;;;18.92;10.95;;;;;;;;;;5135619;28;20047;-87
2023/03/27 14:06:43;;;;;;;31.42;18.42;;;;;;;;;;5117351;28;20400;-86
2023/03/27 14:09:39;;;;;;;43.70;23.98;;;;;;;;;;5135070;28;20038;-86
2023/03/27 14:12:05;;;;;;;31.23;13.23;;;;;;;;;;5052372;28;20041;-85
2023/03/27 14:14:47;;;;;;;14.93;9.32;;;;;;;;;;5052440;28;20442;-86
2023/03/27 14:17:23;;;;;;;20.30;11.70;;;;;;;;;;5035471;28;20048;-86
2023/03/27 14:20:10;;;;;;;14.82;8.63;;;;;;;;;;5052434;28;20025;-86
2023/03/27 14:22:42;;;;;;;14.98;9.57;;;;;;;;;;5035593;28;20033;-86
2023/03/27 14:25:13;;;;;;;9.98;7.45;;;;;;;;;;5052416;28;20063;-85
2023/03/27 14:27:41;;;;;;;11.87;7.80;;;;;;;;;;5035757;28;20351;-85
2023/03/27 14:30:18;;;;;;;8.63;6.47;;;;;;;;;;5035416;28;20041;-86
2023/03/27 14:32:45;;;;;;;8.88;6.45;;;;;;;;;;5052400;28;20052;-86
2023/03/27 14:35:30;;;;;;;11.75;7.57;;;;;;;;;;5068144;28;20506;-86
2023/03/27 14:38:02;;;;;;;13.02;8.00;;;;;;;;;;5052093;28;20029;-86
2023/03/27 14:40:41;;;;;;;13.23;8.77;;;;;;;;;;5044903;28;20045;-85
2023/03/27 14:43:11;;;;;;;15.38;10.07;;;;;;;;;;5054895;28;20029;-85
2023/03/27 14:45:39;;;;;;;10.50;8.68;;;;;;;;;;5022155;28;20022;-85
2023/03/27 14:48:07;;;;;;;11.77;8.20;;;;;;;;;;5067244;28;20161;-86
2023/03/27 14:50:34;;;;;;;11.05;7.68;;;;;;;;;;5102689;28;20020;-86
2023/03/27 14:53:02;;;;;;;10.45;7.85;;;;;;;;;;5102937;28;20057;-86
2023/03/27 14:55:31;;;;;;;9.60;7.75;;;;;;;;;;5121188;28;20045;-86
2023/03/27 14:58:07;;;;;;;13.02;8.07;;;;;;;;;;5120668;28;20084;-86
2023/03/27 15:00:34;;;;;;;11.82;8.23;;;;;;;;;;5120809;28;20031;-86
2023/03/27 15:03:04;;;;;;;9.82;6.32;;;;;;;;;;5120760;28;20110;-86
2023/03/27 15:05:30;;;;;;;10.75;4.85;;;;;;;;;;5102610;28;20455;-86
2023/03/27 15:07:57;;;;;;;9.60;5.40;;;;;;;;;;5120521;28;20016;-87
2023/03/27 15:10:25;;;;;;;4.70;3.05;;;;;;;;;;5102248;28;20042;-86
2023/03/27 15:12:51;;;;;;;5.13;3.28;;;;;;;;;;5102819;28;20016;-86
2023/03/27 15:21:45;;;;;;;4.85;3.47;;;;;;;;;;5120042;28;20039;-86
2023/03/27 15:24:35;;;;;;;3.90;2.90;;;;;;;;;;5101841;28;20088;-87
2023/03/27 15:27:02;;;;;;;3.95;2.72;;;;;;;;;;5037537;28;20056;-87
2023/03/27 15:29:31;;;;;;;6.63;2.75;;;;;;;;;;5037682;28;20037;-86
2023/03/27 15:31:58;;;;;;;4.10;2.92;;;;;;;;;;5038190;28;20038;-86
2023/03/27 15:34:33;;;;;;;3.72;2.28;;;;;;;;;;5037787;28;20079;-86
2023/03/27 15:37:01;;;;;;;9.30;3.35;;;;;;;;;;5054305;28;20033;-88
2023/03/27 15:39:27;;;;;;;7.45;4.00;;;;;;;;;;5037529;28;20053;-88